createdAt,value
2023-07-29T00:04:37.179Z,0
2023-07-29T00:11:11.343Z,0
2023-07-29T00:15:14.751Z,0
2023-07-29T00:20:34.046Z,0
2023-07-29T00:25:53.499Z,0
2023-07-29T00:32:27.677Z,0
2023-07-29T00:36:30.838Z,0
2023-07-29T00:41:50.812Z,0
2023-07-29T00:47:09.876Z,0
2023-07-29T00:52:28.840Z,0
2023-07-29T00:57:47.979Z,0
2023-07-29T01:03:07.139Z,0
2023-07-29T01:08:26.077Z,0
2023-07-29T01:13:45.810Z,0
2023-07-29T01:19:04.486Z,0
2023-07-29T01:24:24.026Z,0
2023-07-29T01:29:42.728Z,0
2023-07-29T01:35:01.702Z,0
2023-07-29T01:40:20.806Z,0
2023-07-29T01:50:59.186Z,0
2023-07-29T01:56:18.408Z,0
2023-07-29T02:01:37.573Z,0
2023-07-29T02:06:56.464Z,0
2023-07-29T02:12:15.789Z,0
2023-07-29T02:17:35.275Z,0
2023-07-29T02:22:53.705Z,0
2023-07-29T02:28:13.440Z,0
2023-07-29T02:33:32.139Z,0
2023-07-29T02:38:50.860Z,0
2023-07-29T02:44:10.615Z,0
2023-07-29T02:49:29.497Z,0
2023-07-29T02:54:49.448Z,0
2023-07-29T03:00:08.685Z,0
2023-07-29T03:05:27.793Z,0
2023-07-29T03:10:47.502Z,0
2023-07-29T03:16:05.980Z,0
2023-07-29T03:21:24.488Z,0
2023-07-29T03:26:45.615Z,0
2023-07-29T03:32:03.157Z,0
2023-07-29T03:37:23.137Z,12.67
2023-07-29T03:42:42.377Z,11.84
2023-07-29T03:48:00.916Z,15.2
2023-07-29T03:53:19.548Z,20.87
2023-07-29T03:58:38.799Z,24.21
2023-07-29T04:03:58.021Z,25.77
2023-07-29T04:14:36.014Z,24.18
2023-07-29T04:19:56.411Z,23.08
2023-07-29T04:25:14.491Z,25.32
2023-07-29T04:30:33.454Z,27.99
2023-07-29T04:35:53.343Z,25.31
2023-07-29T04:41:11.648Z,30.01
2023-07-29T04:46:31.166Z,37.53
2023-07-29T04:51:50.543Z,37.8
2023-07-29T04:57:10.429Z,43.11
2023-07-29T05:02:30.267Z,53.16
2023-07-29T05:07:48.359Z,46.53
2023-07-29T05:13:07.862Z,37.12
2023-07-29T05:18:27.586Z,38.48
2023-07-29T05:23:46.849Z,49.6
2023-07-29T05:29:06.057Z,43.04
2023-07-29T05:34:26.007Z,41.82
2023-07-29T05:35:30.280Z,36.83
2023-07-29T05:40:20.676Z,39.69
2023-07-29T05:50:59.222Z,40.77
2023-07-29T05:56:18.465Z,46.67
2023-07-29T06:01:38.059Z,42.08
2023-07-29T06:06:57.406Z,37.16
2023-07-29T06:17:34.503Z,50.88
2023-07-29T06:22:54.204Z,51.24
2023-07-29T06:28:12.000Z,63.74
2023-07-29T06:33:30.737Z,92.24
2023-07-29T06:38:50.482Z,67.8
2023-07-29T06:44:10.163Z,67.13
2023-07-29T06:49:29.677Z,57.69
2023-07-29T06:54:48.359Z,57.26
2023-07-29T07:00:07.074Z,61.95
2023-07-29T07:05:26.397Z,73.96
2023-07-29T07:10:45.954Z,67.5
2023-07-29T07:16:06.202Z,68.53
2023-07-29T07:26:44.740Z,76.25
2023-07-29T07:32:03.240Z,56.15
2023-07-29T07:37:22.629Z,71.35
2023-07-29T07:42:43.069Z,74.69
2023-07-29T07:48:01.500Z,239.79
2023-07-29T07:53:21.100Z,209.4
2023-07-29T07:58:40.971Z,220.14
2023-07-29T08:03:58.696Z,115.53
2023-07-29T08:09:17.710Z,181.06
2023-07-29T08:14:37.361Z,193.9
2023-07-29T08:21:11.541Z,263.36
2023-07-29T08:25:26.903Z,351.49
2023-07-29T08:35:53.519Z,165.56
2023-07-29T08:41:13.360Z,174.52
2023-07-29T08:47:47.573Z,318.49
2023-07-29T08:57:12.396Z,564.22
2023-07-29T09:07:49.780Z,503.9
2023-07-29T09:14:48.315Z,426.93
2023-07-29T09:23:47.680Z,248.37
2023-07-29T09:29:05.741Z,191.78
2023-07-29T09:36:04.351Z,129.95
2023-07-29T09:45:03.775Z,0
2023-07-29T09:50:20.949Z,576.31
2023-07-29T09:55:39.891Z,0
2023-07-29T10:00:59.301Z,0
2023-07-29T10:06:18.760Z,310.97
2023-07-29T10:11:38.921Z,338.59
2023-07-29T10:18:12.959Z,320.21
2023-07-29T10:27:35.180Z,172.96
2023-07-29T10:32:54.339Z,121.98
2023-07-29T10:38:14.093Z,621.49
2023-07-29T10:43:33.734Z,60.09
2023-07-29T10:50:07.903Z,426.53
2023-07-29T11:02:46.363Z,408.7
2023-07-29T11:11:19.415Z,596.96
2023-07-29T11:15:34.112Z,165.34
2023-07-29T11:20:47.885Z,211.54
2023-07-29T11:31:26.329Z,316.72
2023-07-29T11:42:04.867Z,210.74
2023-07-29T11:47:23.346Z,324.25
2023-07-29T11:52:41.824Z,218.38
2023-07-29T11:58:00.623Z,470.3
2023-07-29T12:03:19.666Z,463.38
2023-07-29T12:08:38.266Z,6.78
2023-07-29T12:13:57.643Z,387.9
2023-07-29T12:19:16.669Z,438.23
2023-07-29T12:24:35.956Z,464.7
2023-07-29T12:29:55.455Z,316.19
2023-07-29T12:35:14.005Z,147.63
2023-07-29T12:40:33.179Z,82.35
2023-07-29T12:45:52.191Z,314.78
2023-07-29T12:51:10.931Z,296.88
2023-07-29T12:56:29.687Z,74.33
2023-07-29T13:01:49.546Z,187.54
2023-07-29T13:07:09.336Z,153.27
2023-07-29T13:12:27.568Z,237.16
2023-07-29T13:17:47.220Z,69.67
2023-07-29T13:23:06.039Z,383.96
2023-07-29T13:28:25.305Z,269.84
2023-07-29T13:33:44.846Z,248.05
2023-07-29T13:39:03.403Z,191.37
2023-07-29T13:44:22.751Z,233.86
2023-07-29T13:55:01.071Z,216.79
2023-07-29T14:00:19.891Z,568.45
2023-07-29T14:05:39.093Z,388.41
2023-07-29T14:10:58.738Z,282.42
2023-07-29T14:16:17.229Z,648.29
2023-07-29T14:21:36.622Z,111.07
2023-07-29T14:26:55.556Z,168.94
2023-07-29T14:32:15.160Z,178.45
2023-07-29T14:37:34.791Z,13.27
2023-07-29T14:42:53.454Z,105.63
2023-07-29T14:48:13.236Z,649.88
2023-07-29T14:58:50.558Z,66.35
2023-07-29T15:04:10.614Z,174.54
2023-07-29T15:09:29.263Z,157.83
2023-07-29T15:14:49.020Z,186.9
2023-07-29T15:20:07.668Z,248.35
2023-07-29T15:25:27.063Z,167.58
2023-07-29T15:30:46.658Z,4.75
2023-07-29T15:36:05.840Z,89.58
2023-07-29T15:41:24.889Z,118.58
2023-07-29T15:46:44.324Z,277.69
2023-07-29T15:52:03.922Z,335.96
2023-07-29T15:57:23.247Z,588.06
2023-07-29T16:02:42.411Z,145.81
2023-07-29T16:08:01.462Z,465.12
2023-07-29T16:13:20.656Z,520.73
2023-07-29T16:18:39.611Z,518.82
2023-07-29T16:23:59.161Z,209.07
2023-07-29T16:29:17.646Z,382.93
2023-07-29T16:34:37.030Z,375.33
2023-07-29T16:39:55.828Z,128.24
2023-07-29T16:45:14.898Z,107.35
2023-07-29T16:50:34.776Z,129.77
2023-07-29T16:55:54.711Z,121.65
2023-07-29T17:01:14.095Z,115.32
2023-07-29T17:06:33.047Z,126.52
2023-07-29T17:11:51.194Z,104.03
2023-07-29T17:17:10.465Z,94.91
2023-07-29T17:22:29.155Z,77.42
2023-07-29T17:27:48.417Z,74.82
2023-07-29T17:33:08.152Z,72.5
2023-07-29T17:38:26.903Z,61.6
2023-07-29T17:43:45.421Z,64.49
2023-07-29T17:49:04.966Z,46
2023-07-29T17:54:23.818Z,42.9
2023-07-29T17:59:41.867Z,47.37
2023-07-29T18:05:01.208Z,46.38
2023-07-29T18:10:20.754Z,48.43
2023-07-29T18:26:19.247Z,30.49
2023-07-29T18:36:57.586Z,28.14
2023-07-29T18:42:17.404Z,27.14
2023-07-29T18:47:35.599Z,28.11
2023-07-29T18:52:54.017Z,24.28
2023-07-29T18:58:13.665Z,22.02
2023-07-29T19:08:51.751Z,13
2023-07-29T19:14:10.936Z,7
2023-07-29T19:19:30.606Z,3
2023-07-29T19:24:50.192Z,0
2023-07-29T19:30:08.327Z,0
2023-07-29T19:35:27.180Z,0
2023-07-29T19:40:46.718Z,0
2023-07-29T19:51:25.561Z,0
2023-07-29T19:56:45.036Z,0
2023-07-29T20:02:05.125Z,0
2023-07-29T20:07:24.727Z,0
2023-07-29T20:12:44.321Z,0
2023-07-29T20:18:03.315Z,0
2023-07-29T20:23:22.249Z,0
2023-07-29T20:34:00.861Z,0
2023-07-29T20:39:19.654Z,0
2023-07-29T20:44:38.377Z,0
2023-07-29T20:49:57.661Z,0
2023-07-29T20:55:17.729Z,0
2023-07-29T21:00:35.740Z,0
2023-07-29T21:05:54.479Z,0
2023-07-29T21:11:13.152Z,0
2023-07-29T21:16:32.295Z,0
2023-07-29T21:21:51.894Z,0
2023-07-29T21:27:11.912Z,0
2023-07-29T21:37:50.206Z,0
2023-07-29T21:43:09.124Z,0
2023-07-29T21:48:28.719Z,0
2023-07-29T21:53:47.571Z,0
2023-07-29T21:59:07.729Z,0
2023-07-29T22:04:27.083Z,0
2023-07-29T22:09:46.409Z,0
2023-07-29T22:20:23.925Z,0
2023-07-29T22:25:42.684Z,0
2023-07-29T22:31:01.473Z,0
2023-07-29T22:36:20.560Z,0
2023-07-29T22:41:39.980Z,0
2023-07-29T22:52:18.799Z,0
2023-07-29T22:57:38.718Z,0
2023-07-29T23:02:57.180Z,0
2023-07-29T23:08:16.665Z,0
2023-07-29T23:13:35.411Z,0
2023-07-29T23:18:53.694Z,0
2023-07-29T23:24:13.282Z,0
2023-07-29T23:29:32.318Z,0
2023-07-29T23:34:51.199Z,0
2023-07-29T23:40:36.810Z,0
2023-07-29T23:45:56.701Z,0
2023-07-29T23:51:15.057Z,0
2023-07-29T23:56:34.229Z,0
